sensor_id;sensor_type;location;lat;lon;timestamp;pressure;altitude;pressure_sealevel;temperature;humidity
60089;BME280;45961;53.574;55.878;2023-02-22T00:00:54;98006.47;;;-4.81;86.09
60089;BME280;45961;53.574;55.878;2023-02-22T00:01:59;98012.47;;;-4.77;86.15
60089;BME280;45961;53.574;55.878;2023-02-22T00:03:26;98019.91;;;-4.82;86.29
60089;BME280;45961;53.574;55.878;2023-02-22T00:04:28;98006.31;;;-4.85;86.39
60089;BME280;45961;53.574;55.878;2023-02-22T00:05:28;98018.16;;;-4.83;86.36
60089;BME280;45961;53.574;55.878;2023-02-22T00:06:31;98019.50;;;-4.68;86.42
60089;BME280;45961;53.574;55.878;2023-02-22T00:07:32;98011.94;;;-4.68;86.41
60089;BME280;45961;53.574;55.878;2023-02-22T00:08:35;98021.97;;;-4.70;86.14
60089;BME280;45961;53.574;55.878;2023-02-22T00:09:36;98009.44;;;-4.67;86.28
60089;BME280;45961;53.574;55.878;2023-02-22T00:10:37;98021.31;;;-4.64;86.27
60089;BME280;45961;53.574;55.878;2023-02-22T00:11:43;98020.59;;;-4.60;86.21
60089;BME280;45961;53.574;55.878;2023-02-22T00:12:46;98007.13;;;-4.61;86.13
60089;BME280;45961;53.574;55.878;2023-02-22T00:13:48;98013.94;;;-4.58;86.02
60089;BME280;45961;53.574;55.878;2023-02-22T00:14:50;97988.34;;;-4.69;86.05
60089;BME280;45961;53.574;55.878;2023-02-22T00:15:51;98010.66;;;-4.56;85.96
60089;BME280;45961;53.574;55.878;2023-02-22T00:16:52;98009.75;;;-4.58;85.95
60089;BME280;45961;53.574;55.878;2023-02-22T00:17:56;97993.44;;;-4.67;86.01
60089;BME280;45961;53.574;55.878;2023-02-22T00:18:57;98002.19;;;-4.58;86.04
60089;BME280;45961;53.574;55.878;2023-02-22T00:19:58;98006.22;;;-4.63;86.02
60089;BME280;45961;53.574;55.878;2023-02-22T00:21:00;98003.50;;;-4.69;86.04
60089;BME280;45961;53.574;55.878;2023-02-22T00:22:01;97981.69;;;-4.92;86.14
60089;BME280;45961;53.574;55.878;2023-02-22T00:23:02;97983.72;;;-4.82;86.26
60089;BME280;45961;53.574;55.878;2023-02-22T00:24:06;98000.81;;;-4.74;86.25
60089;BME280;45961;53.574;55.878;2023-02-22T00:25:24;98001.09;;;-4.66;86.26
60089;BME280;45961;53.574;55.878;2023-02-22T00:26:25;98012.41;;;-4.79;86.65
60089;BME280;45961;53.574;55.878;2023-02-22T00:27:27;98001.78;;;-4.70;86.37
60089;BME280;45961;53.574;55.878;2023-02-22T00:28:28;98007.06;;;-4.62;86.49
60089;BME280;45961;53.574;55.878;2023-02-22T00:29:30;98003.53;;;-4.67;86.47
60089;BME280;45961;53.574;55.878;2023-02-22T00:30:33;97997.84;;;-4.62;86.50
60089;BME280;45961;53.574;55.878;2023-02-22T00:31:37;98004.22;;;-4.73;86.46
60089;BME280;45961;53.574;55.878;2023-02-22T00:32:39;97998.91;;;-4.81;86.54
60089;BME280;45961;53.574;55.878;2023-02-22T00:33:40;98011.66;;;-4.76;86.63
60089;BME280;45961;53.574;55.878;2023-02-22T00:34:41;97986.19;;;-4.84;86.86
60089;BME280;45961;53.574;55.878;2023-02-22T00:35:44;97982.06;;;-4.82;86.77
60089;BME280;45961;53.574;55.878;2023-02-22T00:36:48;97998.22;;;-4.75;86.80
60089;BME280;45961;53.574;55.878;2023-02-22T00:37:51;97980.56;;;-4.75;86.78
60089;BME280;45961;53.574;55.878;2023-02-22T00:38:52;97999.09;;;-4.75;86.93
60089;BME280;45961;53.574;55.878;2023-02-22T00:39:53;97989.19;;;-4.70;86.98
60089;BME280;45961;53.574;55.878;2023-02-22T00:40:54;97974.53;;;-4.80;86.91
60089;BME280;45961;53.574;55.878;2023-02-22T00:41:58;97990.03;;;-4.69;86.92
60089;BME280;45961;53.574;55.878;2023-02-22T00:43:02;97991.19;;;-4.85;86.64
60089;BME280;45961;53.574;55.878;2023-02-22T00:44:03;97997.50;;;-4.73;87.02
60089;BME280;45961;53.574;55.878;2023-02-22T00:45:05;98000.19;;;-4.66;86.91
60089;BME280;45961;53.574;55.878;2023-02-22T00:46:09;97982.38;;;-4.71;86.92
60089;BME280;45961;53.574;55.878;2023-02-22T00:47:10;98002.97;;;-4.59;86.93
60089;BME280;45961;53.574;55.878;2023-02-22T00:48:11;97990.88;;;-4.69;86.81
60089;BME280;45961;53.574;55.878;2023-02-22T00:49:12;97997.69;;;-4.66;86.79
60089;BME280;45961;53.574;55.878;2023-02-22T00:50:15;98003.44;;;-4.71;86.82
60089;BME280;45961;53.574;55.878;2023-02-22T00:51:16;97994.50;;;-4.61;86.78
60089;BME280;45961;53.574;55.878;2023-02-22T00:52:17;97987.34;;;-4.74;86.78
60089;BME280;45961;53.574;55.878;2023-02-22T00:53:18;98001.63;;;-4.75;86.76
60089;BME280;45961;53.574;55.878;2023-02-22T00:54:19;98000.00;;;-4.73;86.87
60089;BME280;45961;53.574;55.878;2023-02-22T00:55:25;98000.19;;;-4.66;86.88
60089;BME280;45961;53.574;55.878;2023-02-22T00:56:26;98004.31;;;-4.70;86.81
60089;BME280;45961;53.574;55.878;2023-02-22T00:57:27;97994.22;;;-4.70;86.75
60089;BME280;45961;53.574;55.878;2023-02-22T00:58:28;97986.44;;;-4.76;86.87
60089;BME280;45961;53.574;55.878;2023-02-22T00:59:30;97993.41;;;-4.69;86.99
60089;BME280;45961;53.574;55.878;2023-02-22T01:01:32;97971.41;;;-4.73;86.92
60089;BME280;45961;53.574;55.878;2023-02-22T01:02:33;97990.06;;;-4.68;86.82
60089;BME280;45961;53.574;55.878;2023-02-22T01:03:34;97982.59;;;-4.65;86.74
60089;BME280;45961;53.574;55.878;2023-02-22T01:04:35;97977.44;;;-4.68;86.93
60089;BME280;45961;53.574;55.878;2023-02-22T01:05:36;97985.97;;;-4.64;86.72
60089;BME280;45961;53.574;55.878;2023-02-22T01:06:40;97982.88;;;-4.56;86.72
60089;BME280;45961;53.574;55.878;2023-02-22T01:07:41;97984.81;;;-4.49;86.73
60089;BME280;45961;53.574;55.878;2023-02-22T01:08:43;97980.50;;;-4.51;86.52
60089;BME280;45961;53.574;55.878;2023-02-22T01:09:45;97977.34;;;-4.45;86.45
60089;BME280;45961;53.574;55.878;2023-02-22T01:10:46;97985.56;;;-4.51;86.36
60089;BME280;45961;53.574;55.878;2023-02-22T01:11:47;97979.78;;;-4.47;86.46
60089;BME280;45961;53.574;55.878;2023-02-22T01:12:48;97982.63;;;-4.63;86.29
60089;BME280;45961;53.574;55.878;2023-02-22T01:13:49;97981.06;;;-4.60;86.37
60089;BME280;45961;53.574;55.878;2023-02-22T01:14:55;97955.34;;;-4.75;86.57
60089;BME280;45961;53.574;55.878;2023-02-22T01:15:57;97993.00;;;-4.56;86.43
60089;BME280;45961;53.574;55.878;2023-02-22T01:17:00;97958.22;;;-4.64;86.45
60089;BME280;45961;53.574;55.878;2023-02-22T01:18:01;97969.88;;;-4.68;86.20
60089;BME280;45961;53.574;55.878;2023-02-22T01:19:04;97975.06;;;-4.63;86.36
60089;BME280;45961;53.574;55.878;2023-02-22T01:20:08;97971.84;;;-4.59;86.21
60089;BME280;45961;53.574;55.878;2023-02-22T01:21:12;97980.56;;;-4.50;86.24
60089;BME280;45961;53.574;55.878;2023-02-22T01:22:14;97981.28;;;-4.54;86.34
60089;BME280;45961;53.574;55.878;2023-02-22T01:23:15;97977.09;;;-4.53;86.32
60089;BME280;45961;53.574;55.878;2023-02-22T01:24:17;97974.00;;;-4.44;86.33
60089;BME280;45961;53.574;55.878;2023-02-22T01:25:21;97984.94;;;-4.44;86.15
60089;BME280;45961;53.574;55.878;2023-02-22T01:26:22;97985.88;;;-4.42;86.18
60089;BME280;45961;53.574;55.878;2023-02-22T01:27:23;97976.38;;;-4.49;86.20
60089;BME280;45961;53.574;55.878;2023-02-22T01:28:24;97982.03;;;-4.56;86.06
60089;BME280;45961;53.574;55.878;2023-02-22T01:29:25;97972.03;;;-4.53;86.14
60089;BME280;45961;53.574;55.878;2023-02-22T01:30:31;97967.81;;;-4.54;86.14
60089;BME280;45961;53.574;55.878;2023-02-22T01:31:33;97966.22;;;-4.51;86.08
60089;BME280;45961;53.574;55.878;2023-02-22T01:32:40;97970.38;;;-4.53;86.16
60089;BME280;45961;53.574;55.878;2023-02-22T01:33:41;97974.00;;;-4.44;85.97
60089;BME280;45961;53.574;55.878;2023-02-22T01:34:42;97965.72;;;-4.40;85.89
60089;BME280;45961;53.574;55.878;2023-02-22T01:35:44;97959.75;;;-4.42;85.76
60089;BME280;45961;53.574;55.878;2023-02-22T01:36:46;97965.31;;;-4.53;85.59
60089;BME280;45961;53.574;55.878;2023-02-22T01:37:47;97968.72;;;-4.52;85.77
60089;BME280;45961;53.574;55.878;2023-02-22T01:38:48;97966.78;;;-4.59;85.71
60089;BME280;45961;53.574;55.878;2023-02-22T01:39:49;97936.72;;;-5.04;85.72
60089;BME280;45961;53.574;55.878;2023-02-22T01:40:51;97975.47;;;-4.51;85.93
60089;BME280;45961;53.574;55.878;2023-02-22T01:41:53;97973.00;;;-4.50;85.83
60089;BME280;45961;53.574;55.878;2023-02-22T01:42:58;97979.09;;;-4.43;85.85
60089;BME280;45961;53.574;55.878;2023-02-22T01:44:30;97973.97;;;-4.46;85.64
60089;BME280;45961;53.574;55.878;2023-02-22T01:45:41;97983.72;;;-4.57;85.76
60089;BME280;45961;53.574;55.878;2023-02-22T01:46:42;97983.88;;;-4.51;85.84
60089;BME280;45961;53.574;55.878;2023-02-22T01:47:43;97980.66;;;-4.47;85.70
60089;BME280;45961;53.574;55.878;2023-02-22T01:48:57;97974.81;;;-4.45;85.79
60089;BME280;45961;53.574;55.878;2023-02-22T01:49:59;97976.78;;;-4.37;85.82
60089;BME280;45961;53.574;55.878;2023-02-22T01:51:08;97973.25;;;-4.42;85.75
60089;BME280;45961;53.574;55.878;2023-02-22T01:52:15;97983.63;;;-4.33;85.65
60089;BME280;45961;53.574;55.878;2023-02-22T01:53:20;97975.84;;;-4.39;85.50
60089;BME280;45961;53.574;55.878;2023-02-22T01:54:39;97971.47;;;-4.44;85.52
60089;BME280;45961;53.574;55.878;2023-02-22T01:55:42;97975.47;;;-4.51;85.55
60089;BME280;45961;53.574;55.878;2023-02-22T01:56:51;97977.59;;;-4.63;85.69
60089;BME280;45961;53.574;55.878;2023-02-22T01:57:53;97939.78;;;-4.87;85.73
60089;BME280;45961;53.574;55.878;2023-02-22T01:59:01;97960.59;;;-4.69;85.94
60089;BME280;45961;53.574;55.878;2023-02-22T02:00:12;97974.44;;;-4.58;86.01
60089;BME280;45961;53.574;55.878;2023-02-22T02:01:15;97974.56;;;-4.79;85.96
60089;BME280;45961;53.574;55.878;2023-02-22T02:02:18;97973.31;;;-4.66;85.96
60089;BME280;45961;53.574;55.878;2023-02-22T02:03:24;97976.38;;;-4.75;86.06
60089;BME280;45961;53.574;55.878;2023-02-22T02:04:27;97972.81;;;-4.81;86.10
60089;BME280;45961;53.574;55.878;2023-02-22T02:05:31;97966.53;;;-4.92;86.15
60089;BME280;45961;53.574;55.878;2023-02-22T02:06:35;97973.53;;;-4.85;86.39
60089;BME280;45961;53.574;55.878;2023-02-22T02:07:37;97976.63;;;-4.92;86.35
60089;BME280;45961;53.574;55.878;2023-02-22T02:08:54;97977.53;;;-4.90;86.42
60089;BME280;45961;53.574;55.878;2023-02-22T02:10:00;97982.50;;;-4.93;86.57
60089;BME280;45961;53.574;55.878;2023-02-22T02:11:05;97982.66;;;-4.89;86.69
60089;BME280;45961;53.574;55.878;2023-02-22T02:12:09;97976.03;;;-4.85;86.60
60089;BME280;45961;53.574;55.878;2023-02-22T02:13:11;97974.53;;;-4.80;86.77
60089;BME280;45961;53.574;55.878;2023-02-22T02:14:32;97972.75;;;-4.83;86.63
60089;BME280;45961;53.574;55.878;2023-02-22T02:15:33;97967.69;;;-4.83;86.56
60089;BME280;45961;53.574;55.878;2023-02-22T02:16:44;97954.53;;;-5.00;86.73
60089;BME280;45961;53.574;55.878;2023-02-22T02:17:47;97969.97;;;-4.90;86.72
60089;BME280;45961;53.574;55.878;2023-02-22T02:18:50;97950.56;;;-4.93;86.75
60089;BME280;45961;53.574;55.878;2023-02-22T02:20:02;97973.06;;;-4.74;86.82
60089;BME280;45961;53.574;55.878;2023-02-22T02:21:54;97969.03;;;-4.68;86.49
60089;BME280;45961;53.574;55.878;2023-02-22T02:27:38;97958.69;;;-4.76;86.26
60089;BME280;45961;53.574;55.878;2023-02-22T02:37:39;97948.41;;;-4.55;86.32
60089;BME280;45961;53.574;55.878;2023-02-22T02:38:54;97944.06;;;-4.59;86.12
60089;BME280;45961;53.574;55.878;2023-02-22T02:41:46;97946.50;;;-4.62;85.97
60089;BME280;45961;53.574;55.878;2023-02-22T02:44:25;97946.44;;;-4.64;86.08
60089;BME280;45961;53.574;55.878;2023-02-22T02:46:08;97939.47;;;-4.71;86.04
60089;BME280;45961;53.574;55.878;2023-02-22T02:47:23;97957.06;;;-4.74;85.96
60089;BME280;45961;53.574;55.878;2023-02-22T02:48:31;97947.16;;;-4.68;86.05
60089;BME280;45961;53.574;55.878;2023-02-22T02:49:45;97947.44;;;-4.59;85.97
60089;BME280;45961;53.574;55.878;2023-02-22T02:50:54;97935.47;;;-4.66;85.99
60089;BME280;45961;53.574;55.878;2023-02-22T02:51:57;97938.13;;;-4.61;85.87
60089;BME280;45961;53.574;55.878;2023-02-22T02:53:01;97924.91;;;-4.80;85.89
60089;BME280;45961;53.574;55.878;2023-02-22T02:54:05;97947.16;;;-4.68;85.66
60089;BME280;45961;53.574;55.878;2023-02-22T02:55:07;97957.06;;;-4.74;85.61
60089;BME280;45961;53.574;55.878;2023-02-22T02:56:11;97938.53;;;-4.75;85.89
60089;BME280;45961;53.574;55.878;2023-02-22T02:57:12;97934.41;;;-4.73;85.86
60089;BME280;45961;53.574;55.878;2023-02-22T02:58:19;97935.97;;;-4.76;85.94
60089;BME280;45961;53.574;55.878;2023-02-22T02:59:30;97941.47;;;-4.88;85.96
60089;BME280;45961;53.574;55.878;2023-02-22T03:00:34;97934.84;;;-4.84;86.16
60089;BME280;45961;53.574;55.878;2023-02-22T03:06:59;97931.03;;;-4.73;86.06
60089;BME280;45961;53.574;55.878;2023-02-22T03:08:12;97934.97;;;-4.81;86.06
60089;BME280;45961;53.574;55.878;2023-02-22T03:09:29;97929.53;;;-4.93;86.04
60089;BME280;45961;53.574;55.878;2023-02-22T03:10:51;97930.09;;;-4.75;86.14
60089;BME280;45961;53.574;55.878;2023-02-22T03:12:18;97928.59;;;-4.70;86.15
60089;BME280;45961;53.574;55.878;2023-02-22T03:15:07;97929.34;;;-4.73;85.81
60089;BME280;45961;53.574;55.878;2023-02-22T03:17:40;97909.66;;;-4.83;85.86
60089;BME280;45961;53.574;55.878;2023-02-22T03:20:27;97922.19;;;-4.86;85.53
60089;BME280;45961;53.574;55.878;2023-02-22T03:21:35;97926.28;;;-4.89;85.54
60089;BME280;45961;53.574;55.878;2023-02-22T03:22:45;97920.38;;;-4.90;85.70
60089;BME280;45961;53.574;55.878;2023-02-22T03:24:00;97926.75;;;-5.01;85.67
60089;BME280;45961;53.574;55.878;2023-02-22T03:25:10;97908.81;;;-5.09;85.77
60089;BME280;45961;53.574;55.878;2023-02-22T03:26:19;97914.03;;;-5.04;85.85
60089;BME280;45961;53.574;55.878;2023-02-22T03:27:48;97925.63;;;-5.09;85.66
60089;BME280;45961;53.574;55.878;2023-02-22T03:28:53;97927.38;;;-5.07;85.68
60089;BME280;45961;53.574;55.878;2023-02-22T03:29:59;97915.69;;;-5.05;85.87
60089;BME280;45961;53.574;55.878;2023-02-22T03:31:09;97891.50;;;-5.24;85.78
60089;BME280;45961;53.574;55.878;2023-02-22T03:32:21;97920.91;;;-4.99;85.68
60089;BME280;45961;53.574;55.878;2023-02-22T03:33:36;97923.00;;;-5.12;85.50
60089;BME280;45961;53.574;55.878;2023-02-22T03:34:43;97922.44;;;-5.04;85.66
60089;BME280;45961;53.574;55.878;2023-02-22T03:35:54;97924.06;;;-5.06;85.45
60089;BME280;45961;53.574;55.878;2023-02-22T03:37:06;97913.19;;;-5.29;85.30
60089;BME280;45961;53.574;55.878;2023-02-22T03:38:08;97923.16;;;-5.08;85.53
60089;BME280;45961;53.574;55.878;2023-02-22T03:39:13;97915.88;;;-4.99;85.62
60089;BME280;45961;53.574;55.878;2023-02-22T03:40:26;97921.88;;;-4.95;85.15
60089;BME280;45961;53.574;55.878;2023-02-22T03:41:32;97922.66;;;-4.98;85.07
60089;BME280;45961;53.574;55.878;2023-02-22T03:42:44;97921.72;;;-5.00;84.88
60089;BME280;45961;53.574;55.878;2023-02-22T03:43:48;97929.00;;;-5.09;84.98
60089;BME280;45961;53.574;55.878;2023-02-22T03:44:53;97909.94;;;-5.26;84.86
60089;BME280;45961;53.574;55.878;2023-02-22T03:45:58;97919.63;;;-5.13;84.87
60089;BME280;45961;53.574;55.878;2023-02-22T03:47:05;97915.16;;;-5.20;84.69
60089;BME280;45961;53.574;55.878;2023-02-22T03:48:30;97915.09;;;-4.98;84.80
60089;BME280;45961;53.574;55.878;2023-02-22T03:49:44;97916.13;;;-4.91;84.61
60089;BME280;45961;53.574;55.878;2023-02-22T03:50:48;97914.31;;;-4.95;84.49
60089;BME280;45961;53.574;55.878;2023-02-22T03:51:50;97914.13;;;-5.01;84.53
60089;BME280;45961;53.574;55.878;2023-02-22T03:52:51;97919.03;;;-5.06;84.51
60089;BME280;45961;53.574;55.878;2023-02-22T03:53:58;97879.31;;;-5.37;84.44
60089;BME280;45961;53.574;55.878;2023-02-22T03:55:04;97916.78;;;-4.97;84.65
60089;BME280;45961;53.574;55.878;2023-02-22T03:56:16;97916.06;;;-4.94;84.68
60089;BME280;45961;53.574;55.878;2023-02-22T03:57:26;97935.81;;;-5.06;84.72
60089;BME280;45961;53.574;55.878;2023-02-22T03:58:37;97905.50;;;-5.08;84.88
60089;BME280;45961;53.574;55.878;2023-02-22T03:59:40;97899.69;;;-5.05;84.72
60089;BME280;45961;53.574;55.878;2023-02-22T04:00:42;97911.84;;;-4.93;84.76
60089;BME280;45961;53.574;55.878;2023-02-22T04:01:44;97916.09;;;-4.92;84.78
60089;BME280;45961;53.574;55.878;2023-02-22T04:02:45;97913.59;;;-4.91;84.80
60089;BME280;45961;53.574;55.878;2023-02-22T04:03:52;97914.09;;;-4.76;84.72
60089;BME280;45961;53.574;55.878;2023-02-22T04:04:53;97910.41;;;-4.60;84.55
60089;BME280;45961;53.574;55.878;2023-02-22T04:05:54;97911.94;;;-4.65;84.11
60089;BME280;45961;53.574;55.878;2023-02-22T04:06:56;97912.50;;;-4.74;84.10
60089;BME280;45961;53.574;55.878;2023-02-22T04:07:59;97910.72;;;-4.76;83.94
60089;BME280;45961;53.574;55.878;2023-02-22T04:09:01;97892.00;;;-4.83;83.97
60089;BME280;45961;53.574;55.878;2023-02-22T04:10:02;97911.69;;;-4.73;83.98
60089;BME280;45961;53.574;55.878;2023-02-22T04:11:05;97910.00;;;-4.72;84.02
60089;BME280;45961;53.574;55.878;2023-02-22T04:12:07;97909.44;;;-4.63;83.88
60089;BME280;45961;53.574;55.878;2023-02-22T04:13:22;97908.44;;;-4.68;83.81
60089;BME280;45961;53.574;55.878;2023-02-22T04:14:26;97919.69;;;-4.59;83.84
60089;BME280;45961;53.574;55.878;2023-02-22T04:15:27;97893.47;;;-4.62;83.82
60089;BME280;45961;53.574;55.878;2023-02-22T04:16:35;97912.41;;;-4.50;83.66
60089;BME280;45961;53.574;55.878;2023-02-22T04:17:39;97907.44;;;-4.47;83.57
60089;BME280;45961;53.574;55.878;2023-02-22T04:18:42;97904.28;;;-4.39;83.25
60089;BME280;45961;53.574;55.878;2023-02-22T04:19:43;97920.44;;;-4.34;83.26
60089;BME280;45961;53.574;55.878;2023-02-22T04:20:46;97894.06;;;-4.71;83.04
60089;BME280;45961;53.574;55.878;2023-02-22T04:21:56;97909.44;;;-4.63;83.19
60089;BME280;45961;53.574;55.878;2023-02-22T04:22:59;97915.47;;;-4.58;83.16
60089;BME280;45961;53.574;55.878;2023-02-22T04:24:00;97908.22;;;-4.49;83.41
60089;BME280;45961;53.574;55.878;2023-02-22T04:25:01;97897.13;;;-4.54;83.31
60089;BME280;45961;53.574;55.878;2023-02-22T04:26:02;97911.00;;;-4.40;83.38
60089;BME280;45961;53.574;55.878;2023-02-22T04:27:04;97910.16;;;-4.40;83.19
60089;BME280;45961;53.574;55.878;2023-02-22T04:28:09;97900.69;;;-4.48;83.24
60089;BME280;45961;53.574;55.878;2023-02-22T04:29:18;97896.44;;;-4.49;83.14
60089;BME280;45961;53.574;55.878;2023-02-22T04:30:19;97901.28;;;-4.55;83.14
60089;BME280;45961;53.574;55.878;2023-02-22T04:31:21;97867.72;;;-4.79;83.07
60089;BME280;45961;53.574;55.878;2023-02-22T04:32:24;97893.91;;;-4.49;83.17
60089;BME280;45961;53.574;55.878;2023-02-22T04:33:25;97893.22;;;-4.44;83.17
60089;BME280;45961;53.574;55.878;2023-02-22T04:34:26;97891.56;;;-4.42;83.05
60089;BME280;45961;53.574;55.878;2023-02-22T04:35:27;97890.78;;;-4.41;83.01
60089;BME280;45961;53.574;55.878;2023-02-22T04:36:28;97888.66;;;-4.55;82.93
60089;BME280;45961;53.574;55.878;2023-02-22T04:37:32;97888.28;;;-4.40;83.13
60089;BME280;45961;53.574;55.878;2023-02-22T04:38:36;97881.47;;;-4.42;83.17
60089;BME280;45961;53.574;55.878;2023-02-22T04:39:37;97870.44;;;-4.46;83.06
60089;BME280;45961;53.574;55.878;2023-02-22T04:40:38;97880.91;;;-4.34;83.03
60089;BME280;45961;53.574;55.878;2023-02-22T04:41:40;97879.81;;;-4.42;83.03
60089;BME280;45961;53.574;55.878;2023-02-22T04:42:42;97869.50;;;-4.50;83.08
60089;BME280;45961;53.574;55.878;2023-02-22T04:43:43;97872.97;;;-4.46;83.27
60089;BME280;45961;53.574;55.878;2023-02-22T04:44:54;97866.56;;;-4.35;83.13
60089;BME280;45961;53.574;55.878;2023-02-22T04:45:55;97864.09;;;-4.33;83.15
60089;BME280;45961;53.574;55.878;2023-02-22T04:46:57;97862.75;;;-4.22;83.20
60089;BME280;45961;53.574;55.878;2023-02-22T04:47:58;97851.00;;;-4.20;83.17
60089;BME280;45961;53.574;55.878;2023-02-22T04:48:59;97857.22;;;-4.09;83.17
60089;BME280;45961;53.574;55.878;2023-02-22T04:50:04;97872.75;;;-4.25;82.79
60089;BME280;45961;53.574;55.878;2023-02-22T04:51:06;97854.38;;;-4.19;82.89
60089;BME280;45961;53.574;55.878;2023-02-22T04:52:08;97858.84;;;-4.39;83.03
60089;BME280;45961;53.574;55.878;2023-02-22T04:53:12;97859.19;;;-4.27;83.06
60089;BME280;45961;53.574;55.878;2023-02-22T04:54:13;97853.75;;;-4.41;83.24
60089;BME280;45961;53.574;55.878;2023-02-22T04:55:18;97849.06;;;-4.29;83.28
60089;BME280;45961;53.574;55.878;2023-02-22T04:56:19;97850.53;;;-4.35;83.42
60089;BME280;45961;53.574;55.878;2023-02-22T04:57:21;97853.69;;;-4.42;83.49
60089;BME280;45961;53.574;55.878;2023-02-22T04:58:24;97832.03;;;-4.36;83.64
60089;BME280;45961;53.574;55.878;2023-02-22T04:59:25;97845.56;;;-4.34;83.65
60089;BME280;45961;53.574;55.878;2023-02-22T05:00:33;97832.22;;;-4.30;83.57
60089;BME280;45961;53.574;55.878;2023-02-22T05:01:36;97836.81;;;-4.15;83.62
60089;BME280;45961;53.574;55.878;2023-02-22T05:02:38;97854.00;;;-4.03;83.41
60089;BME280;45961;53.574;55.878;2023-02-22T05:03:39;97842.88;;;-4.10;83.21
60089;BME280;45961;53.574;55.878;2023-02-22T05:04:40;97845.06;;;-4.22;83.37
60089;BME280;45961;53.574;55.878;2023-02-22T05:05:41;97839.44;;;-4.12;83.49
60089;BME280;45961;53.574;55.878;2023-02-22T05:06:42;97842.78;;;-4.13;83.41
60089;BME280;45961;53.574;55.878;2023-02-22T05:07:43;97842.44;;;-4.25;83.47
60089;BME280;45961;53.574;55.878;2023-02-22T05:08:44;97843.41;;;-4.20;83.51
60089;BME280;45961;53.574;55.878;2023-02-22T05:09:45;97835.94;;;-4.17;83.85
60089;BME280;45961;53.574;55.878;2023-02-22T05:10:46;97829.97;;;-4.19;83.54
60089;BME280;45961;53.574;55.878;2023-02-22T05:11:47;97828.59;;;-4.09;83.61
60089;BME280;45961;53.574;55.878;2023-02-22T05:12:49;97836.44;;;-3.99;83.62
60089;BME280;45961;53.574;55.878;2023-02-22T05:13:51;97835.44;;;-4.05;83.41
60089;BME280;45961;53.574;55.878;2023-02-22T05:14:52;97832.19;;;-4.01;83.56
60089;BME280;45961;53.574;55.878;2023-02-22T05:15:53;97842.78;;;-4.13;83.50
60089;BME280;45961;53.574;55.878;2023-02-22T05:16:55;97834.59;;;-4.04;83.76
60089;BME280;45961;53.574;55.878;2023-02-22T05:17:56;97822.69;;;-4.10;83.89
60089;BME280;45961;53.574;55.878;2023-02-22T05:18:57;97824.84;;;-3.92;83.85
60089;BME280;45961;53.574;55.878;2023-02-22T05:19:58;97826.19;;;-4.05;83.56
60089;BME280;45961;53.574;55.878;2023-02-22T05:20:59;97823.94;;;-4.24;83.88
60089;BME280;45961;53.574;55.878;2023-02-22T05:22:00;97817.63;;;-4.10;84.05
60089;BME280;45961;53.574;55.878;2023-02-22T05:23:02;97804.19;;;-4.07;84.27
60089;BME280;45961;53.574;55.878;2023-02-22T05:24:03;97831.44;;;-3.97;84.22
60089;BME280;45961;53.574;55.878;2023-02-22T05:25:04;97818.47;;;-4.09;84.23
60089;BME280;45961;53.574;55.878;2023-02-22T05:26:06;97821.06;;;-4.06;84.42
60089;BME280;45961;53.574;55.878;2023-02-22T05:27:07;97818.03;;;-3.94;84.38
60089;BME280;45961;53.574;55.878;2023-02-22T05:28:11;97814.53;;;-3.98;84.23
60089;BME280;45961;53.574;55.878;2023-02-22T05:29:13;97812.59;;;-4.08;84.25
60089;BME280;45961;53.574;55.878;2023-02-22T05:30:14;97819.03;;;-3.89;84.40
60089;BME280;45961;53.574;55.878;2023-02-22T05:31:16;97814.19;;;-3.82;84.40
60089;BME280;45961;53.574;55.878;2023-02-22T05:32:17;97810.75;;;-3.84;84.45
60089;BME280;45961;53.574;55.878;2023-02-22T05:33:18;97807.34;;;-3.86;84.28
60089;BME280;45961;53.574;55.878;2023-02-22T05:34:19;97820.31;;;-4.04;84.19
60089;BME280;45961;53.574;55.878;2023-02-22T05:35:21;97810.31;;;-3.99;84.36
60089;BME280;45961;53.574;55.878;2023-02-22T05:36:23;97802.25;;;-4.17;84.52
60089;BME280;45961;53.574;55.878;2023-02-22T05:37:24;97814.19;;;-3.82;84.54
60089;BME280;45961;53.574;55.878;2023-02-22T05:38:25;97805.97;;;-4.05;84.62
60089;BME280;45961;53.574;55.878;2023-02-22T05:39:26;97807.75;;;-4.01;84.70
60089;BME280;45961;53.574;55.878;2023-02-22T05:40:27;97803.28;;;-3.79;84.67
60089;BME280;45961;53.574;55.878;2023-02-22T05:41:29;97808.72;;;-3.97;84.53
60089;BME280;45961;53.574;55.878;2023-02-22T05:42:29;97806.06;;;-4.02;84.78
60089;BME280;45961;53.574;55.878;2023-02-22T05:43:30;97802.72;;;-4.01;84.82
60089;BME280;45961;53.574;55.878;2023-02-22T05:44:32;97804.53;;;-3.95;85.03
60089;BME280;45961;53.574;55.878;2023-02-22T05:45:33;97794.00;;;-3.80;85.25
60089;BME280;45961;53.574;55.878;2023-02-22T05:46:33;97792.50;;;-3.72;84.93
60089;BME280;45961;53.574;55.878;2023-02-22T05:47:35;97804.00;;;-3.83;84.91
60089;BME280;45961;53.574;55.878;2023-02-22T05:48:35;97799.91;;;-3.78;85.05
60089;BME280;45961;53.574;55.878;2023-02-22T05:49:36;97796.59;;;-3.77;85.19
60089;BME280;45961;53.574;55.878;2023-02-22T05:50:37;97799.47;;;-3.63;85.09
60089;BME280;45961;53.574;55.878;2023-02-22T05:51:38;97798.28;;;-3.78;85.10
60089;BME280;45961;53.574;55.878;2023-02-22T05:52:40;97790.94;;;-3.68;85.49
60089;BME280;45961;53.574;55.878;2023-02-22T05:53:41;97791.88;;;-3.65;85.48
60089;BME280;45961;53.574;55.878;2023-02-22T05:54:42;97780.34;;;-3.54;85.49
60089;BME280;45961;53.574;55.878;2023-02-22T05:55:43;97783.38;;;-3.67;85.24
60089;BME280;45961;53.574;55.878;2023-02-22T05:56:44;97775.13;;;-3.60;85.44
60089;BME280;45961;53.574;55.878;2023-02-22T05:57:45;97774.59;;;-3.48;85.70
60089;BME280;45961;53.574;55.878;2023-02-22T05:58:47;97781.63;;;-3.36;85.60
60089;BME280;45961;53.574;55.878;2023-02-22T05:59:48;97780.69;;;-3.40;85.46
60089;BME280;45961;53.574;55.878;2023-02-22T06:00:49;97769.66;;;-3.42;85.26
60089;BME280;45961;53.574;55.878;2023-02-22T06:01:50;97779.09;;;-3.36;85.51
60089;BME280;45961;53.574;55.878;2023-02-22T06:03:59;97778.06;;;-3.43;85.02
60089;BME280;45961;53.574;55.878;2023-02-22T06:05:00;97774.03;;;-3.36;85.16
60089;BME280;45961;53.574;55.878;2023-02-22T06:06:01;97758.84;;;-3.36;85.04